Terminal Aerodrome Forecast
Issued by NWS Bismarck, ND

Home | Current Version | Previous Version | Text Only | Print | Product List | Glossary On
Versions: 1 2 3 4 5 6 7 8 9 10 11 12 13 14 15 16
000
FTUS43 KBIS 171100
TAFISN
TAF
KISN 171135Z 1712/1812 12012KT P6SM OVC040
     FM171500 13014KT P6SM VCSH BKN040
     FM171900 14016G22KT P6SM BKN050
     FM180300 13013KT P6SM SCT025 BKN070
      AMD NOT SKED=

USA.gov is the U.S. government's official web portal to all federal, state and local government web resources and services.